createdAt,value
2022-08-18T00:01:11.885Z,98371.00
2022-08-18T00:03:57.324Z,98371.59
2022-08-18T00:06:31.389Z,98370.75
2022-08-18T00:09:00.638Z,98368.06
2022-08-18T00:11:41.058Z,98360.75
2022-08-18T00:14:21.243Z,98371.75
2022-08-18T00:16:53.411Z,98375.91
2022-08-18T00:19:43.623Z,98378.31
2022-08-18T00:22:14.674Z,98372.88
2022-08-18T00:24:47.707Z,98373.19
2022-08-18T00:27:19.544Z,98360.63
2022-08-18T00:29:50.469Z,98358.94
2022-08-18T00:32:23.553Z,98365.41
2022-08-18T00:34:53.389Z,98353.69
2022-08-18T00:37:22.842Z,98352.13
2022-08-18T00:39:52.656Z,98356.03
2022-08-18T00:42:29.087Z,98354.44
2022-08-18T00:45:01.251Z,98350.34
2022-08-18T00:47:41.034Z,98344.06
2022-08-18T00:50:15.418Z,98330.84
2022-08-18T00:52:48.818Z,98339.19
2022-08-18T00:55:18.242Z,98340.66
2022-08-18T00:57:50.807Z,98337.97
2022-08-18T01:00:19.393Z,98344.59
2022-08-18T01:02:54.333Z,98340.06
2022-08-18T01:05:28.313Z,98328.41
2022-08-18T01:07:56.346Z,98329.22
2022-08-18T01:10:27.026Z,98329.47
2022-08-18T01:12:57.909Z,98329.34
2022-08-18T01:15:30.203Z,98328.66
2022-08-18T01:18:18.121Z,98317.88
2022-08-18T01:21:13.081Z,98316.06
2022-08-18T01:23:42.497Z,98311.13
2022-08-18T01:26:10.839Z,98311.31
2022-08-18T01:28:41.869Z,98305.50
2022-08-18T01:31:10.769Z,98301.66
2022-08-18T01:33:42.379Z,98296.56
2022-08-18T01:36:16.599Z,98286.75
2022-08-18T01:38:47.873Z,98289.16
2022-08-18T01:41:28.411Z,98278.16
2022-08-18T01:43:58.464Z,98270.97
2022-08-18T01:46:28.051Z,98273.66
2022-08-18T01:48:58.555Z,98268.03
2022-08-18T01:51:40.580Z,98275.28
2022-08-18T01:54:12.495Z,98264.88
2022-08-18T01:56:42.124Z,98268.75
2022-08-18T01:59:15.106Z,98257.31
2022-08-18T02:01:52.777Z,98248.38
2022-08-18T02:04:41.126Z,98255.81
2022-08-18T02:07:11.837Z,98256.56
2022-08-18T02:09:43.235Z,98252.66
2022-08-18T02:12:14.344Z,98259.22
2022-08-18T02:14:42.401Z,98261.66
2022-08-18T02:17:12.114Z,98268.03
2022-08-18T02:19:42.478Z,98262.94
2022-08-18T02:22:12.577Z,98249.38
2022-08-18T02:24:42.126Z,98256.34
2022-08-18T02:27:11.658Z,98247.78
2022-08-18T02:29:39.555Z,98250.81
2022-08-18T02:32:08.665Z,98248.19
2022-08-18T02:34:38.833Z,98257.56
2022-08-18T02:37:06.603Z,98254.00
2022-08-18T02:39:37.912Z,98254.06
2022-08-18T02:42:09.133Z,98256.16
2022-08-18T02:44:37.211Z,98244.66
2022-08-18T02:47:05.400Z,98242.59
2022-08-18T02:49:33.224Z,98258.72
2022-08-18T02:52:01.180Z,98249.66
2022-08-18T02:54:29.201Z,98249.28
2022-08-18T02:56:57.440Z,98252.06
2022-08-18T02:59:28.493Z,98252.47
2022-08-18T03:02:00.016Z,98251.84
2022-08-18T03:04:30.917Z,98256.63
2022-08-18T03:07:02.309Z,98258.72
2022-08-18T03:09:30.770Z,98259.16
2022-08-18T03:11:59.062Z,98253.47
2022-08-18T03:14:29.151Z,98249.13
2022-08-18T03:16:59.851Z,98241.78
2022-08-18T03:19:29.666Z,98248.63
2022-08-18T03:22:02.987Z,98260.00
2022-08-18T03:24:32.960Z,98246.66
2022-08-18T03:27:02.180Z,98242.28
2022-08-18T03:29:32.997Z,98250.75
2022-08-18T03:32:02.014Z,98240.59
2022-08-18T03:34:30.507Z,98235.69
2022-08-18T03:36:58.661Z,98239.47
2022-08-18T03:39:29.468Z,98231.53
2022-08-18T03:42:01.094Z,98233.25
2022-08-18T03:44:33.437Z,98233.25
2022-08-18T03:47:02.798Z,98236.56
2022-08-18T03:49:31.503Z,98229.16
2022-08-18T03:52:02.419Z,98227.75
2022-08-18T03:54:33.650Z,98229.59
2022-08-18T03:57:02.002Z,98231.22
2022-08-18T03:59:33.356Z,98222.50
2022-08-18T04:02:04.843Z,98233.47
2022-08-18T04:04:32.675Z,98233.75
2022-08-18T04:07:04.715Z,98225.38
2022-08-18T04:09:34.511Z,98213.94
2022-08-18T04:12:10.395Z,98216.13
2022-08-18T04:14:48.054Z,98222.19
2022-08-18T04:17:16.449Z,98224.94
2022-08-18T04:19:44.348Z,98229.16
2022-08-18T04:22:17.188Z,98227.69
2022-08-18T04:24:45.650Z,98227.06
2022-08-18T04:27:14.173Z,98232.88
2022-08-18T04:29:45.418Z,98237.69
2022-08-18T04:32:13.338Z,98235.84
2022-08-18T04:34:41.310Z,98242.88
2022-08-18T04:37:09.759Z,98246.38
2022-08-18T04:39:38.231Z,98251.56
2022-08-18T04:42:06.245Z,98254.47
2022-08-18T04:44:34.655Z,98250.16
2022-08-18T04:47:03.990Z,98247.81
2022-08-18T04:49:34.010Z,98249.06
2022-08-18T04:52:34.331Z,98253.94
2022-08-18T04:55:08.232Z,98257.84
2022-08-18T04:57:36.382Z,98257.53
2022-08-18T05:00:06.900Z,98256.78
2022-08-18T05:02:36.110Z,98268.59
2022-08-18T05:05:04.647Z,98276.78
2022-08-18T05:07:33.217Z,98272.63
2022-08-18T05:10:01.118Z,98277.25
2022-08-18T05:12:29.532Z,98281.19
2022-08-18T05:14:57.886Z,98279.50
2022-08-18T05:17:30.077Z,98272.97
2022-08-18T05:20:01.691Z,98278.03
2022-08-18T05:22:31.060Z,98274.00
2022-08-18T05:25:00.325Z,98276.44
2022-08-18T05:27:32.853Z,98264.94
2022-08-18T05:30:00.760Z,98259.25
2022-08-18T05:32:47.232Z,98253.97
2022-08-18T05:35:24.341Z,98267.16
2022-08-18T05:38:06.602Z,98265.00
2022-08-18T05:40:36.251Z,98265.19
2022-08-18T05:43:06.003Z,98269.63
2022-08-18T05:45:34.722Z,98270.69
2022-08-18T05:48:02.961Z,98265.81
2022-08-18T05:50:36.452Z,98262.34
2022-08-18T05:53:13.513Z,98270.38
2022-08-18T05:56:05.555Z,98257.31
2022-08-18T05:58:38.406Z,98261.09
2022-08-18T06:01:13.157Z,98258.84
2022-08-18T06:03:49.563Z,98248.06
2022-08-18T06:06:24.155Z,98249.16
2022-08-18T06:09:00.019Z,98251.72
2022-08-18T06:11:28.307Z,98249.72
2022-08-18T06:14:00.133Z,98261.78
2022-08-18T06:16:49.554Z,98275.72
2022-08-18T06:19:36.059Z,98274.31
2022-08-18T06:22:17.468Z,98268.72
2022-08-18T06:24:56.487Z,98283.84
2022-08-18T06:27:40.972Z,98296.56
2022-08-18T06:30:15.167Z,98300.28
2022-08-18T06:33:18.256Z,98302.19
2022-08-18T06:35:50.263Z,98293.75
2022-08-18T06:38:39.684Z,98298.75
2022-08-18T06:41:42.510Z,98290.88
2022-08-18T06:44:05.773Z,98282.09
2022-08-18T06:46:42.198Z,98274.47
2022-08-18T06:49:12.971Z,98273.41
2022-08-18T06:51:41.395Z,98266.03
2022-08-18T06:54:29.345Z,98259.72
2022-08-18T06:56:58.805Z,98266.34
2022-08-18T06:59:29.462Z,98269.41
2022-08-18T07:02:01.561Z,98267.13
2022-08-18T07:04:37.474Z,98271.75
2022-08-18T07:07:21.448Z,98276.19
2022-08-18T07:09:50.760Z,98267.63
2022-08-18T07:12:30.513Z,98276.78
2022-08-18T07:15:02.494Z,98283.28
2022-08-18T07:17:42.754Z,98289.44
2022-08-18T07:20:21.856Z,98303.53
2022-08-18T07:22:55.746Z,98308.47
2022-08-18T07:25:28.726Z,98311.59
2022-08-18T07:27:57.216Z,98312.28
2022-08-18T07:30:32.407Z,98322.38
2022-08-18T07:33:12.083Z,98319.59
2022-08-18T07:35:46.508Z,98323.53
2022-08-18T07:38:41.500Z,98327.97
2022-08-18T07:41:16.042Z,98325.50
2022-08-18T07:44:02.852Z,98327.72
2022-08-18T07:46:37.672Z,98330.63
2022-08-18T07:49:08.160Z,98332.47
2022-08-18T07:51:47.779Z,98337.88
2022-08-18T07:54:50.172Z,98334.28
2022-08-18T07:57:35.408Z,98331.63
2022-08-18T08:00:30.563Z,98333.75
2022-08-18T08:03:22.315Z,98332.34
2022-08-18T08:05:57.527Z,98335.50
2022-08-18T08:08:31.501Z,98340.22
2022-08-18T08:11:10.645Z,98339.97
2022-08-18T08:13:56.227Z,98329.47
2022-08-18T08:16:36.385Z,98329.47
2022-08-18T08:19:15.771Z,98335.28
2022-08-18T08:21:52.860Z,98340.22
2022-08-18T08:24:30.012Z,98343.28
2022-08-18T08:27:06.222Z,98330.50
2022-08-18T08:29:46.198Z,98323.16
2022-08-18T08:32:20.696Z,98310.31
2022-08-18T08:34:52.913Z,98292.69
2022-08-18T08:37:25.543Z,98305.84
2022-08-18T08:39:58.999Z,98302.72
2022-08-18T08:42:40.517Z,98294.34
2022-08-18T08:45:15.077Z,98301.06
2022-08-18T08:47:50.368Z,98294.38
2022-08-18T08:50:24.023Z,98289.41
2022-08-18T08:52:57.342Z,98286.00
2022-08-18T08:55:28.307Z,98286.00
2022-08-18T08:58:02.998Z,98279.44
2022-08-18T09:00:33.420Z,98280.59
2022-08-18T09:03:15.535Z,98291.31
2022-08-18T09:05:56.643Z,98302.91
2022-08-18T09:08:40.327Z,98303.31
2022-08-18T09:11:28.363Z,98296.56
2022-08-18T09:14:24.645Z,98276.47
2022-08-18T09:17:12.562Z,98272.84
2022-08-18T09:19:56.554Z,98266.66
2022-08-18T09:22:37.707Z,98244.19
2022-08-18T09:25:11.387Z,98240.66
2022-08-18T09:28:09.293Z,98253.75
2022-08-18T09:30:55.260Z,98266.81
2022-08-18T09:33:35.617Z,98272.88
2022-08-18T09:36:20.399Z,98286.16
2022-08-18T09:39:10.222Z,98295.25
2022-08-18T09:41:49.078Z,98287.56
2022-08-18T09:44:50.955Z,98284.63
2022-08-18T09:47:52.290Z,98291.34
2022-08-18T09:50:53.142Z,98292.44
2022-08-18T09:53:53.555Z,98280.59
2022-08-18T09:56:55.774Z,98282.53
2022-08-18T09:59:59.233Z,98284.25
2022-08-18T10:03:07.137Z,98287.97
2022-08-18T10:05:38.988Z,98305.59
2022-08-18T10:08:42.765Z,98298.59
2022-08-18T10:11:32.069Z,98295.47
2022-08-18T10:14:24.669Z,98293.25
2022-08-18T10:19:57.310Z,98271.66
2022-08-18T10:22:43.482Z,98256.66
2022-08-18T10:25:22.813Z,98258.97
2022-08-18T10:28:05.378Z,98254.56
2022-08-18T10:31:06.489Z,98251.78
2022-08-18T10:34:00.412Z,98239.78
2022-08-18T10:36:46.598Z,98226.47
2022-08-18T10:39:19.839Z,98222.91
2022-08-18T10:41:58.017Z,98201.94
2022-08-18T10:44:29.492Z,98190.09
2022-08-18T10:47:01.155Z,98177.53
2022-08-18T10:49:33.178Z,98185.03
2022-08-18T10:52:46.309Z,98203.75
2022-08-18T10:55:48.792Z,98209.38
2022-08-18T10:58:30.349Z,98202.19
2022-08-18T11:01:18.014Z,98192.19
2022-08-18T11:07:08.473Z,98190.38
2022-08-18T11:09:41.780Z,98182.72
2022-08-18T11:12:13.632Z,98175.03
2022-08-18T11:15:22.805Z,98183.84
2022-08-18T11:18:03.112Z,98194.47
2022-08-18T11:20:33.724Z,98201.69
2022-08-18T11:23:04.298Z,98205.59
2022-08-18T11:26:34.225Z,98195.03
2022-08-18T11:29:26.902Z,98192.50
2022-08-18T11:32:02.057Z,98204.34
2022-08-18T11:34:38.503Z,98197.84
2022-08-18T11:37:20.866Z,98195.72
2022-08-18T11:39:51.833Z,98198.06
2022-08-18T11:42:27.859Z,98204.13
2022-08-18T11:45:05.700Z,98198.72
2022-08-18T11:47:33.823Z,98181.63
2022-08-18T11:50:12.053Z,98188.66
2022-08-18T11:52:53.481Z,98189.03
2022-08-18T11:55:30.088Z,98172.94
2022-08-18T11:58:00.287Z,98179.69
2022-08-18T12:00:55.226Z,98160.69
2022-08-18T12:03:31.955Z,98164.31
2022-08-18T12:06:10.868Z,98157.50
2022-08-18T12:08:55.763Z,98152.31
2022-08-18T12:11:29.171Z,98142.88
2022-08-18T12:16:57.466Z,98146.06
2022-08-18T12:19:30.778Z,98133.41
2022-08-18T12:22:00.481Z,98133.28
2022-08-18T12:24:36.961Z,98125.59
2022-08-18T12:27:12.383Z,98140.13
2022-08-18T12:32:49.192Z,98140.94
2022-08-18T12:35:21.634Z,98132.19
2022-08-18T12:38:00.354Z,98134.31
2022-08-18T12:40:31.882Z,98132.44
2022-08-18T12:43:00.023Z,98127.00
2022-08-18T12:45:30.917Z,98127.13
2022-08-18T12:48:04.027Z,98125.91
2022-08-18T12:50:36.162Z,98128.34
2022-08-18T12:53:05.776Z,98119.69
2022-08-18T12:55:43.464Z,98102.84
2022-08-18T12:58:12.219Z,98103.22
2022-08-18T13:00:42.638Z,98093.00
2022-08-18T13:03:11.928Z,98085.22
2022-08-18T13:05:39.947Z,98084.44
2022-08-18T13:08:30.540Z,98076.81
2022-08-18T13:11:14.736Z,98072.31
2022-08-18T13:13:44.409Z,98054.50
2022-08-18T13:16:16.601Z,98052.13
2022-08-18T13:19:02.932Z,98046.25
2022-08-18T13:21:39.142Z,98036.59
2022-08-18T13:24:10.280Z,98041.16
2022-08-18T13:26:45.663Z,98033.28
2022-08-18T13:29:15.472Z,98046.56
2022-08-18T13:31:55.718Z,98046.03
2022-08-18T13:34:29.783Z,98039.50
2022-08-18T13:36:58.985Z,98034.84
2022-08-18T13:39:33.617Z,98041.91
2022-08-18T13:42:28.407Z,98049.41
2022-08-18T13:44:53.331Z,98057.44
2022-08-18T13:47:22.164Z,98057.31
2022-08-18T13:49:58.984Z,98053.91
2022-08-18T13:52:44.439Z,98051.19
2022-08-18T13:55:16.799Z,98042.13
2022-08-18T13:57:53.592Z,98040.00
2022-08-18T14:00:30.740Z,98026.88
2022-08-18T14:03:02.206Z,98038.44
2022-08-18T14:05:50.962Z,98030.66
2022-08-18T14:08:19.944Z,98036.22
2022-08-18T14:10:50.685Z,98030.44
2022-08-18T14:13:20.693Z,98024.50
2022-08-18T14:15:54.771Z,98029.41
2022-08-18T14:18:28.655Z,98032.78
2022-08-18T14:21:16.209Z,98034.28
2022-08-18T14:24:00.709Z,98031.81
2022-08-18T14:26:46.333Z,98035.91
2022-08-18T14:29:46.454Z,98038.63
2022-08-18T14:32:09.339Z,98037.00
2022-08-18T14:34:50.720Z,98036.25
2022-08-18T14:37:20.848Z,98038.41
2022-08-18T14:39:53.739Z,98036.47
2022-08-18T14:42:41.109Z,98034.84
2022-08-18T14:45:26.387Z,98033.00
2022-08-18T14:47:59.233Z,98030.56
2022-08-18T14:50:27.548Z,98029.94
2022-08-18T14:52:57.108Z,98034.22
2022-08-18T14:55:27.617Z,98027.03
2022-08-18T14:57:59.483Z,98030.00
2022-08-18T15:00:29.011Z,98030.94
2022-08-18T15:02:59.809Z,98037.19
2022-08-18T15:05:33.706Z,98036.22
2022-08-18T15:08:09.022Z,98029.41
2022-08-18T15:10:39.017Z,98033.63
2022-08-18T15:13:07.269Z,98029.13
2022-08-18T15:15:42.327Z,98026.13
2022-08-18T15:18:22.707Z,98034.25
2022-08-18T15:21:10.306Z,98032.72
2022-08-18T15:24:19.523Z,98032.84
2022-08-18T15:26:51.418Z,98033.50
2022-08-18T15:29:22.537Z,98036.13
2022-08-18T15:31:59.838Z,98039.59
2022-08-18T15:34:33.128Z,98035.47
2022-08-18T15:37:14.421Z,98028.78
2022-08-18T15:39:44.170Z,98030.75
2022-08-18T15:42:14.145Z,98027.69
2022-08-18T15:44:44.811Z,98033.63
2022-08-18T15:47:12.679Z,98022.28
2022-08-18T15:49:40.612Z,98019.28
2022-08-18T15:52:12.631Z,98022.34
2022-08-18T15:54:42.347Z,98017.31
2022-08-18T15:57:36.023Z,98014.53
2022-08-18T16:00:05.903Z,98012.03
2022-08-18T16:02:40.114Z,98015.47
2022-08-18T16:05:10.433Z,98003.78
2022-08-18T16:07:45.031Z,98004.56
2022-08-18T16:10:13.654Z,97991.94
2022-08-18T16:12:45.685Z,98000.78
2022-08-18T16:15:15.359Z,97995.59
2022-08-18T16:17:49.620Z,97998.38
2022-08-18T16:20:18.628Z,98002.28
2022-08-18T16:22:46.994Z,98004.81
2022-08-18T16:25:16.425Z,98009.09
2022-08-18T16:27:47.781Z,98010.19
2022-08-18T16:30:20.658Z,98006.41
2022-08-18T16:32:48.882Z,98011.00
2022-08-18T16:35:20.058Z,98015.69
2022-08-18T16:37:49.651Z,98016.00
2022-08-18T16:40:19.130Z,98012.69
2022-08-18T16:42:54.142Z,98028.88
2022-08-18T16:45:22.697Z,98023.53
2022-08-18T16:47:50.636Z,98020.41
2022-08-18T16:50:19.333Z,98023.41
2022-08-18T16:52:47.304Z,98023.22
2022-08-18T16:55:15.205Z,98024.03
2022-08-18T16:58:02.386Z,98018.63
2022-08-18T17:00:55.225Z,98016.75
2022-08-18T17:03:41.311Z,98007.53
2022-08-18T17:06:11.831Z,98017.19
2022-08-18T17:08:41.006Z,98015.41
2022-08-18T17:11:11.693Z,98016.19
2022-08-18T17:13:43.240Z,98021.69
2022-08-18T17:16:13.161Z,98017.72
2022-08-18T17:18:42.435Z,98013.72
2022-08-18T17:21:13.791Z,98019.63
2022-08-18T17:23:44.869Z,98018.84
2022-08-18T17:26:18.492Z,98016.72
2022-08-18T17:28:53.722Z,98016.47
2022-08-18T17:31:25.988Z,98013.41
2022-08-18T17:33:58.440Z,98015.41
2022-08-18T17:36:34.596Z,98030.97
2022-08-18T17:39:06.229Z,98022.44
2022-08-18T17:41:57.105Z,98026.28
2022-08-18T17:44:28.650Z,98023.75
2022-08-18T17:47:03.727Z,98023.97
2022-08-18T17:50:26.969Z,98037.19
2022-08-18T17:52:47.118Z,98029.13
2022-08-18T17:55:24.904Z,98040.75
2022-08-18T17:57:58.653Z,98047.38
2022-08-18T18:00:28.064Z,98046.59
2022-08-18T18:02:58.262Z,98044.25
2022-08-18T18:05:36.416Z,98054.28
2022-08-18T18:08:05.204Z,98052.53
2022-08-18T18:11:02.265Z,98054.22
2022-08-18T18:13:32.382Z,98048.75
2022-08-18T18:16:02.363Z,98058.63
2022-08-18T18:18:38.118Z,98066.69
2022-08-18T18:21:21.546Z,98061.94
2022-08-18T18:23:54.111Z,98062.56
2022-08-18T18:26:29.323Z,98071.06
2022-08-18T18:29:29.127Z,98065.81
2022-08-18T18:32:01.677Z,98075.59
2022-08-18T18:34:39.405Z,98072.03
2022-08-18T18:37:25.145Z,98070.50
2022-08-18T18:39:58.003Z,98071.72
2022-08-18T18:42:28.275Z,98072.88
2022-08-18T18:44:59.089Z,98079.72
2022-08-18T18:47:54.523Z,98084.22
2022-08-18T18:50:31.079Z,98082.94
2022-08-18T18:53:10.876Z,98084.88
2022-08-18T18:55:44.867Z,98093.03
2022-08-18T18:58:22.509Z,98092.53
2022-08-18T19:00:55.930Z,98098.03
2022-08-18T19:03:32.174Z,98094.59
2022-08-18T19:06:13.989Z,98090.38
2022-08-18T19:08:51.939Z,98090.34
2022-08-18T19:11:29.016Z,98098.00
2022-08-18T19:14:02.996Z,98100.19
2022-08-18T19:16:41.228Z,98106.41
2022-08-18T19:19:37.896Z,98095.50
2022-08-18T19:22:14.968Z,98101.31
2022-08-18T19:24:53.490Z,98103.47
2022-08-18T19:27:28.053Z,98103.41
2022-08-18T19:30:01.637Z,98094.63
2022-08-18T19:32:42.774Z,98101.22
2022-08-18T19:35:16.244Z,98110.59
2022-08-18T19:38:09.345Z,98096.06
2022-08-18T19:40:45.582Z,98100.81
2022-08-18T19:43:27.547Z,98093.50
2022-08-18T19:46:00.743Z,98101.13
2022-08-18T19:48:35.904Z,98106.16
2022-08-18T19:51:10.508Z,98112.81
2022-08-18T19:53:55.144Z,98118.88
2022-08-18T19:56:42.041Z,98123.69
2022-08-18T19:59:34.124Z,98132.78
2022-08-18T20:02:17.806Z,98122.16
2022-08-18T20:05:14.316Z,98123.75
2022-08-18T20:07:57.481Z,98122.53
2022-08-18T20:10:53.223Z,98121.25
2022-08-18T20:13:33.334Z,98133.75
2022-08-18T20:16:14.184Z,98133.75
2022-08-18T20:18:44.822Z,98130.38
2022-08-18T20:21:47.770Z,98131.22
2022-08-18T20:24:39.629Z,98133.69
2022-08-18T20:27:35.474Z,98136.16
2022-08-18T20:30:31.984Z,98142.13
2022-08-18T20:33:19.925Z,98144.63
2022-08-18T20:36:02.308Z,98146.38
2022-08-18T20:38:35.145Z,98151.88
2022-08-18T20:41:39.265Z,98140.38
2022-08-18T20:44:45.492Z,98138.63
2022-08-18T20:47:55.657Z,98130.09
2022-08-18T20:50:47.618Z,98135.94
2022-08-18T20:53:32.769Z,98126.13
2022-08-18T20:56:31.295Z,98116.47
2022-08-18T20:59:08.679Z,98133.56
2022-08-18T21:01:39.103Z,98126.94
2022-08-18T21:04:08.209Z,98128.63
2022-08-18T21:06:41.971Z,98138.06
2022-08-18T21:09:10.506Z,98135.69
2022-08-18T21:11:42.992Z,98145.22
2022-08-18T21:14:12.915Z,98143.97
2022-08-18T21:16:45.042Z,98150.19
2022-08-18T21:19:20.610Z,98149.44
2022-08-18T21:21:51.675Z,98150.00
2022-08-18T21:24:23.675Z,98155.84
2022-08-18T21:26:56.697Z,98154.44
2022-08-18T21:29:24.904Z,98165.22
2022-08-18T21:32:07.997Z,98162.75
2022-08-18T21:34:44.391Z,98162.75
2022-08-18T21:37:15.102Z,98166.06
2022-08-18T21:39:55.178Z,98162.31
2022-08-18T21:42:27.954Z,98163.56
2022-08-18T21:44:57.429Z,98163.97
2022-08-18T21:47:31.721Z,98164.66
2022-08-18T21:50:09.336Z,98166.47
2022-08-18T21:52:40.578Z,98186.22
2022-08-18T21:55:23.311Z,98186.00
2022-08-18T21:58:02.670Z,98188.06
2022-08-18T22:00:33.868Z,98191.19
2022-08-18T22:03:28.347Z,98187.25
2022-08-18T22:06:03.170Z,98187.28
2022-08-18T22:08:35.070Z,98189.34
2022-08-18T22:11:51.901Z,98191.00
2022-08-18T22:14:36.240Z,98191.84
2022-08-18T22:17:33.771Z,98192.88
2022-08-18T22:20:48.627Z,98193.94
2022-08-18T22:23:55.309Z,98179.47
2022-08-18T22:26:27.207Z,98174.03
2022-08-18T22:29:00.782Z,98174.88
2022-08-18T22:31:31.467Z,98173.66
2022-08-18T22:34:03.253Z,98178.84
2022-08-18T22:36:35.477Z,98182.56
2022-08-18T22:39:05.919Z,98184.88
2022-08-18T22:41:36.864Z,98191.94
2022-08-18T22:44:05.529Z,98194.41
2022-08-18T22:46:34.144Z,98189.41
2022-08-18T22:49:03.245Z,98191.50
2022-08-18T22:51:33.335Z,98198.13
2022-08-18T22:54:01.231Z,98189.41
2022-08-18T22:56:34.712Z,98194.81
2022-08-18T22:59:13.669Z,98204.34
2022-08-18T23:01:46.150Z,98196.06
2022-08-18T23:04:15.841Z,98194.97
2022-08-18T23:06:52.031Z,98185.28
2022-08-18T23:09:22.649Z,98197.09
2022-08-18T23:11:53.385Z,98193.13
2022-08-18T23:14:22.233Z,98199.78
2022-08-18T23:16:50.397Z,98206.44
2022-08-18T23:19:20.232Z,98208.06
2022-08-18T23:21:50.912Z,98208.91
2022-08-18T23:24:21.042Z,98205.59
2022-08-18T23:26:50.027Z,98214.28
2022-08-18T23:29:21.406Z,98200.59
2022-08-18T23:31:51.380Z,98201.34
2022-08-18T23:34:21.509Z,98184.81
2022-08-18T23:36:54.713Z,98191.47
2022-08-18T23:39:22.916Z,98192.75
2022-08-18T23:41:51.125Z,98191.50
2022-08-18T23:44:20.631Z,98194.81
2022-08-18T23:46:52.499Z,98198.09
2022-08-18T23:49:23.347Z,98189.00
2022-08-18T23:51:55.945Z,98192.34
2022-08-18T23:54:29.127Z,98184.84
2022-08-18T23:56:57.093Z,98190.00
2022-08-18T23:59:28.137Z,98191.28
